Antelope, Texas
Current Conditions -  °F | °C
As of 1:10 AM on Sunday 23 Nov 2014 (Local Time) from KRPH Reporting Station
Moderate Fog Moderate Fog  
Wind Chill: 50°   Ceiling: 500
Heat Index: 50°   Visibility: 0.5mi
Dew Point: 50°   Wind: 0mph
Humidity: 100%   Direction: NA
Pressure: 29.63"   Gusts: NA
Location:  33.4259°N, 98.383°W
Report Text: KRPH 230710Z AUTO 00000KT 1/2SM FG VV005 10/10 A2963 RMK AO2 T00990099
Loading
Personal Weather Stations






























Interactive Weather Map New forecast layout! Learn more

10-Day Weather Forecast

Advertisements
Track Severe Weather on mobile